AK Snow Hourly Site Data - Kachemak Creek -    options: noZero
Provisional data. Not verified for accuracy.
Date/Time
Ak Std Time
Precip.
Storage
Inches
Air
Temp.
Current
Deg. F
Snow
Depth
Inches
Solar
Radiation
Hourly
W/M2
Relative
Humidity
Percent
2019/03/19 19:00 59.8 29.3 47 63 67
2019/03/19 18:00 59.7 30.6 46 199 64
2019/03/19 17:00 59.7 32.1 46 324 64
2019/03/19 16:00 59.7 33.9 47 424 54
2019/03/19 15:00 59.7 35.4 46 495 52
2019/03/19 14:00 59.7 38.0 47 519 47
2019/03/19 13:00 59.8 35.5 46 507 51
2019/03/19 12:00 59.8 38.8 46 456 46
2019/03/19 11:00 59.8 34.1 47 371 53
2019/03/19 10:00 59.9 32.0 47 259 56
2019/03/19 09:00 59.9 29.7 47 122 58
2019/03/19 08:00 59.9 27.5 47 13 70
2019/03/19 07:00 59.9 28.6 47 0 71
2019/03/19 06:00 59.9 29.2 47 0 67
2019/03/19 05:00 59.9 30.2 47 0 70
2019/03/19 04:00 59.9 29.7 47 0 75
2019/03/19 03:00 59.9 30.6 47 0 65
2019/03/19 02:00 59.9 31.0 48 0 66
2019/03/19 01:00 59.8 31.4 47 0 62
2019/03/19 00:00 59.8 32.0 48 0 68
2019/03/18 23:00 59.8 33.5 48 0 67
2019/03/18 22:00 59.8 30.9 48 0 73
2019/03/18 21:00 59.9 31.0 48 0 73
2019/03/18 20:00 59.9 32.8 48 3 79
2019/03/18 19:00 59.8 35.1 48 41 78
2019/03/18 18:00 59.9 36.5 48 90 82
2019/03/18 17:00 59.8 36.3 48 159 84
2019/03/18 16:00 59.8 37.6 48 240 78
2019/03/18 15:00 59.8 37.4 49 233 83
2019/03/18 14:00 59.8 37.7 49 369 82
2019/03/18 13:00 59.8 37.6 49 271 82
2019/03/18 12:00 59.7 37.5 49 171 84
2019/03/18 11:00 59.7 37.4 49 126 83
2019/03/18 10:00 59.7 37.3 50 79 83
2019/03/18 09:00 59.7 37.4 50 41 82
2019/03/18 08:00 59.7 37.1 50 13 84
2019/03/18 07:00 59.7 37.0 50 0 84
2019/03/18 06:00 59.7 37.5 50 0 82
2019/03/18 05:00 59.7 37.8 50 0 81
2019/03/18 04:00 59.7 36.9 50 0 83
2019/03/18 03:00 59.5 37.4 50 0 82
2019/03/18 02:00 59.4 37.2 50 0 84
2019/03/18 01:00 59.3 35.6 50 0 90
2019/03/18 00:00 59.1 35.1 50 0 90
Date/Time
Ak Std Time
Precip.
Storage
Inches
Air
Temp.
Current
Deg. F
Snow
Depth
Inches
Solar
Radiation
Hourly
W/M2
Relative
Humidity
Percent